Time;durP1;ratioP1;P1;durP2;ratioP2;P2;SDS_P1;SDS_P2;PMS_P1;PMS_P2;Temp;Humidity;BMP_temperature;BMP_pressure;BME280_temperature;BME280_humidity;BME280_pressure;Samples;Min_cycle;Max_cycle;Signal;HPM_P1;HPM_P2
2021/05/11 00:01:37;;;;;;;0.93;0.60;;;13.30;99.90;;;;;;5013491;28;20042;-74
2021/05/11 00:04:03;;;;;;;0.50;0.50;;;13.30;99.90;;;;;;5012691;28;20369;-73
2021/05/11 00:06:29;;;;;;;0.65;0.63;;;13.10;99.90;;;;;;5013277;28;20045;-73
2021/05/11 00:08:54;;;;;;;0.45;0.45;;;13.10;99.90;;;;;;5013589;28;20022;-74
2021/05/11 00:11:20;;;;;;;2.75;0.43;;;13.10;99.90;;;;;;5013342;28;20030;-74
2021/05/11 00:13:45;;;;;;;0.50;0.50;;;13.20;99.90;;;;;;5012656;28;20032;-74
2021/05/11 00:16:11;;;;;;;0.70;0.50;;;13.10;99.90;;;;;;5013139;28;20033;-74
2021/05/11 00:18:37;;;;;;;0.80;0.80;;;13.00;99.90;;;;;;5013140;28;20080;-73
2021/05/11 00:21:03;;;;;;;1.15;0.70;;;13.00;99.90;;;;;;5013549;28;20430;-72
2021/05/11 00:23:29;;;;;;;1.33;1.10;;;13.00;99.90;;;;;;5012608;28;20022;-73
2021/05/11 00:25:55;;;;;;;1.25;0.75;;;13.20;99.90;;;;;;5013059;28;20026;-73
2021/05/11 00:28:21;;;;;;;12.73;1.25;;;13.20;99.90;;;;;;5013159;28;20058;-72
2021/05/11 00:30:46;;;;;;;1.75;0.65;;;13.20;99.90;;;;;;5013078;28;20104;-74
2021/05/11 00:33:12;;;;;;;0.60;0.60;;;13.20;99.90;;;;;;5012426;28;20026;-73
2021/05/11 00:35:38;;;;;;;0.88;0.68;;;13.10;99.90;;;;;;5012911;28;20117;-74
2021/05/11 00:38:03;;;;;;;1.48;0.88;;;13.20;99.90;;;;;;5013247;28;20135;-74
2021/05/11 00:40:29;;;;;;;0.70;0.70;;;13.20;99.90;;;;;;5012895;28;20114;-74
2021/05/11 00:42:55;;;;;;;1.30;0.80;;;13.20;99.90;;;;;;5012094;28;20045;-73
2021/05/11 00:45:21;;;;;;;2.55;0.77;;;13.20;99.90;;;;;;5012482;28;20022;-73
2021/05/11 00:47:47;;;;;;;1.63;0.60;;;13.20;99.90;;;;;;5012629;28;20038;-73
2021/05/11 00:50:13;;;;;;;0.75;0.75;;;13.20;99.90;;;;;;5013047;28;20025;-72
2021/05/11 00:52:39;;;;;;;0.60;0.60;;;13.20;99.90;;;;;;5012104;28;20061;-72
2021/05/11 00:55:06;;;;;;;1.90;0.88;;;13.20;99.90;;;;;;4994612;28;20396;-73
2021/05/11 00:57:33;;;;;;;0.50;0.50;;;13.20;99.90;;;;;;5012330;28;20041;-73
2021/05/11 01:00:03;;;;;;;0.57;0.52;;;13.20;99.90;;;;;;5012622;28;20033;-73
2021/05/11 01:02:28;;;;;;;3.35;0.43;;;13.00;99.90;;;;;;5012029;28;20057;-73
2021/05/11 01:04:55;;;;;;;0.77;0.50;;;12.90;99.90;;;;;;5010993;28;20062;-73
2021/05/11 01:07:21;;;;;;;1.02;0.70;;;13.00;99.90;;;;;;5012311;28;20021;-73
2021/05/11 01:09:47;;;;;;;0.70;0.70;;;13.10;99.90;;;;;;5012047;28;20079;-73
2021/05/11 01:12:12;;;;;;;0.93;0.70;;;13.20;99.90;;;;;;5012368;28;20033;-73
2021/05/11 01:14:38;;;;;;;0.73;0.73;;;13.10;99.90;;;;;;5011258;28;20041;-72
2021/05/11 01:17:04;;;;;;;0.63;0.50;;;13.10;99.90;;;;;;5011964;28;20030;-71
2021/05/11 01:22:08;;;;;;;0.52;0.52;;;13.10;99.90;;;;;;5011977;28;20030;-73
2021/05/11 01:27:23;;;;;;;0.80;0.80;;;13.00;99.90;;;;;;5012272;28;20048;-73
2021/05/11 01:30:06;;;;;;;1.88;0.65;;;12.90;99.90;;;;;;5012000;28;20558;-74
2021/05/11 01:49:04;;;;;;;1.98;0.60;;;12.90;99.90;;;;;;5012117;28;20459;-73
2021/05/11 02:23:13;;;;;;;3.08;1.08;;;12.80;99.90;;;;;;5010396;28;20037;-73
2021/05/11 02:25:39;;;;;;;0.82;0.82;;;12.60;99.90;;;;;;5011056;28;20022;-73
2021/05/11 02:28:04;;;;;;;3.20;1.08;;;12.70;99.90;;;;;;5011240;28;20491;-73
2021/05/11 02:30:30;;;;;;;1.10;1.10;;;12.70;99.90;;;;;;5011218;28;20022;-72
2021/05/11 02:32:56;;;;;;;1.35;1.25;;;12.70;99.90;;;;;;5010370;28;20083;-72
2021/05/11 02:35:22;;;;;;;3.78;1.40;;;12.80;99.90;;;;;;5010744;28;20026;-73
2021/05/11 02:37:47;;;;;;;1.40;1.27;;;12.70;99.90;;;;;;5011062;28;20049;-73
2021/05/11 02:40:15;;;;;;;3.95;1.45;;;12.60;99.90;;;;;;5011108;28;20030;-73
2021/05/11 02:42:44;;;;;;;1.40;1.30;;;12.60;99.90;;;;;;5010584;28;20033;-73
2021/05/11 02:45:12;;;;;;;1.25;1.25;;;12.60;99.90;;;;;;5010757;28;20049;-73
2021/05/11 02:47:48;;;;;;;2.20;1.40;;;12.60;99.90;;;;;;5073145;22;20491;-72
2021/05/11 02:50:21;;;;;;;1.17;1.05;;;12.60;99.90;;;;;;5034034;28;20021;-72
2021/05/11 02:52:47;;;;;;;3.33;1.10;;;12.60;99.90;;;;;;5030427;28;20025;-71
2021/05/11 02:55:14;;;;;;;1.48;1.40;;;12.50;99.90;;;;;;5030954;28;20057;-73
2021/05/11 02:57:40;;;;;;;1.67;1.30;;;12.60;99.90;;;;;;5030865;28;20041;-70
2021/05/11 03:00:08;;;;;;;1.30;1.20;;;12.50;99.90;;;;;;5030908;28;20026;-72
2021/05/11 03:02:34;;;;;;;1.50;1.40;;;12.40;99.90;;;;;;5030337;28;20095;-71
2021/05/11 03:05:00;;;;;;;2.00;1.58;;;12.60;99.90;;;;;;5030443;28;20479;-75
2021/05/11 03:07:26;;;;;;;1.40;1.30;;;12.70;99.90;;;;;;5013673;28;20053;-75
2021/05/11 03:09:52;;;;;;;1.42;1.33;;;12.50;99.90;;;;;;5030932;28;20382;-75
2021/05/11 03:12:18;;;;;;;1.50;1.40;;;12.40;99.90;;;;;;5031175;28;20033;-75
2021/05/11 03:14:44;;;;;;;1.60;1.50;;;12.50;99.90;;;;;;5030201;28;20030;-75
2021/05/11 03:17:10;;;;;;;3.60;1.38;;;12.50;99.90;;;;;;5024087;28;20037;-76
2021/05/11 03:19:35;;;;;;;1.55;1.45;;;12.60;99.90;;;;;;5011135;28;20030;-75
2021/05/11 03:22:01;;;;;;;1.67;1.42;;;12.60;99.90;;;;;;5011014;28;20036;-73
2021/05/11 03:24:27;;;;;;;4.40;1.77;;;12.60;99.90;;;;;;5010368;28;20022;-72
2021/05/11 03:26:53;;;;;;;2.30;2.10;;;12.60;99.90;;;;;;5010919;28;20018;-74
2021/05/11 03:29:19;;;;;;;3.30;3.00;;;12.60;99.90;;;;;;5012671;28;20025;-75
2021/05/11 03:31:45;;;;;;;8.65;5.40;;;12.50;99.90;;;;;;5014384;28;20100;-73
2021/05/11 03:34:10;;;;;;;8.90;6.18;;;12.40;99.90;;;;;;5013753;28;20109;-74
2021/05/11 03:36:36;;;;;;;8.18;6.45;;;12.40;99.90;;;;;;5014366;28;20415;-74
2021/05/11 03:39:07;;;;;;;9.38;7.03;;;12.40;99.90;;;;;;5014478;28;20029;-72
2021/05/11 03:41:39;;;;;;;11.25;7.80;;;12.30;99.90;;;;;;5014295;28;20471;-71
2021/05/11 03:44:09;;;;;;;10.88;7.78;;;12.30;99.90;;;;;;5013476;28;20034;-73
2021/05/11 03:46:36;;;;;;;12.00;8.05;;;12.20;99.90;;;;;;5013695;28;20117;-73
2021/05/11 03:49:04;;;;;;;13.07;8.13;;;12.10;99.90;;;;;;5014215;28;20053;-73
2021/05/11 03:51:31;;;;;;;13.38;7.63;;;12.10;99.90;;;;;;5014053;28;20037;-72
2021/05/11 03:53:57;;;;;;;10.75;6.35;;;12.10;99.90;;;;;;5013195;28;20096;-73
2021/05/11 03:56:22;;;;;;;11.68;7.00;;;12.00;99.90;;;;;;5013580;28;20037;-73
2021/05/11 03:58:48;;;;;;;9.73;6.68;;;11.90;99.90;;;;;;5013991;28;20392;-72
2021/05/11 04:01:14;;;;;;;10.85;6.68;;;11.90;99.90;;;;;;5014146;28;20419;-72
2021/05/11 04:03:39;;;;;;;7.63;6.22;;;11.80;99.90;;;;;;5013012;28;20114;-73
2021/05/11 04:06:05;;;;;;;6.90;5.68;;;11.90;99.90;;;;;;5013673;28;20077;-73
2021/05/11 04:11:06;;;;;;;7.43;5.50;;;11.90;99.90;;;;;;5013808;28;20054;-74
2021/05/11 04:13:48;;;;;;;7.38;5.75;;;11.90;99.90;;;;;;4995620;28;20109;-73
2021/05/11 04:16:21;;;;;;;6.13;5.32;;;12.00;99.90;;;;;;5013687;28;20029;-74
2021/05/11 04:18:47;;;;;;;8.27;5.28;;;12.00;99.90;;;;;;5007997;28;20093;-74
2021/05/11 04:21:13;;;;;;;6.70;4.78;;;12.10;99.90;;;;;;5035635;28;20033;-73
2021/05/11 04:23:38;;;;;;;5.93;4.68;;;12.10;99.90;;;;;;5035650;28;20037;-74
2021/05/11 04:26:04;;;;;;;6.78;4.28;;;12.10;99.90;;;;;;5036044;28;20029;-75
2021/05/11 04:28:30;;;;;;;4.85;3.92;;;12.20;99.90;;;;;;5036601;28;20535;-73
2021/05/11 04:30:55;;;;;;;6.57;3.90;;;12.20;99.90;;;;;;5018140;28;20022;-73
2021/05/11 04:33:21;;;;;;;6.22;4.28;;;12.30;99.90;;;;;;5013407;28;20554;-73
2021/05/11 04:35:47;;;;;;;4.97;3.90;;;12.30;99.90;;;;;;5002402;28;20118;-73
2021/05/11 04:38:13;;;;;;;6.32;5.70;;;12.30;99.90;;;;;;5012762;28;20026;-74
2021/05/11 04:40:38;;;;;;;6.43;5.43;;;12.30;99.90;;;;;;5013347;28;20056;-73
2021/05/11 04:43:05;;;;;;;8.95;7.43;;;12.20;99.90;;;;;;5032447;28;20033;-75
2021/05/11 04:45:33;;;;;;;10.80;8.05;;;12.20;99.90;;;;;;5032279;28;20087;-73
2021/05/11 04:47:59;;;;;;;12.95;9.38;;;12.10;99.90;;;;;;5018535;28;20037;-74
2021/05/11 04:50:27;;;;;;;10.23;8.30;;;12.30;99.90;;;;;;4995432;28;20030;-73
2021/05/11 04:52:53;;;;;;;9.52;7.63;;;12.40;99.90;;;;;;5027340;28;20112;-74
2021/05/11 04:55:19;;;;;;;12.85;9.50;;;12.60;99.90;;;;;;5021886;28;20017;-74
2021/05/11 04:57:45;;;;;;;12.77;10.05;;;12.50;99.90;;;;;;5012756;28;20029;-70
2021/05/11 05:00:13;;;;;;;12.07;9.90;;;12.70;99.90;;;;;;5012818;28;20429;-70
2021/05/11 05:02:42;;;;;;;12.77;9.80;;;12.70;99.90;;;;;;5011689;28;20072;-69
2021/05/11 05:05:08;;;;;;;11.00;8.70;;;12.90;99.90;;;;;;5011681;28;20022;-69
2021/05/11 05:07:37;;;;;;;11.57;9.30;;;13.10;99.90;;;;;;5012338;28;20049;-70
2021/05/11 05:10:04;;;;;;;11.00;9.48;;;13.50;99.90;;;;;;5012328;28;20045;-70
2021/05/11 05:12:30;;;;;;;9.70;8.70;;;13.60;99.90;;;;;;5012374;28;20038;-69
2021/05/11 05:14:56;;;;;;;13.15;9.95;;;13.60;99.90;;;;;;5010808;28;20021;-71
2021/05/11 05:17:23;;;;;;;11.48;9.57;;;13.50;99.90;;;;;;5011980;28;20064;-71
2021/05/11 05:19:49;;;;;;;13.60;10.38;;;13.40;99.90;;;;;;5011730;28;20049;-70
2021/05/11 05:22:15;;;;;;;13.45;10.25;;;13.00;99.90;;;;;;4994056;28;20053;-71
2021/05/11 05:24:47;;;;;;;14.30;10.38;;;13.00;99.90;;;;;;5011244;28;20025;-71
2021/05/11 05:29:41;;;;;;;12.18;6.63;;;12.90;99.90;;;;;;5031872;28;20018;-69
2021/05/11 05:32:08;;;;;;;15.27;8.68;;;12.80;99.90;;;;;;5031422;28;20033;-70
2021/05/11 05:34:34;;;;;;;12.50;8.25;;;12.60;99.90;;;;;;5012778;28;20033;-70
2021/05/11 05:36:59;;;;;;;10.18;7.68;;;12.40;99.90;;;;;;5031348;28;20029;-71
2021/05/11 05:39:43;;;;;;;7.55;6.50;;;12.30;99.90;;;;;;5031804;28;20107;-71
2021/05/11 05:42:09;;;;;;;11.25;7.57;;;12.30;99.90;;;;;;5031654;28;20477;-73
2021/05/11 05:44:35;;;;;;;10.85;8.88;;;12.40;99.90;;;;;;5013053;28;20026;-70
2021/05/11 05:47:01;;;;;;;10.32;7.78;;;12.40;99.90;;;;;;5025017;28;20056;-70
2021/05/11 05:49:34;;;;;;;11.95;8.82;;;12.50;99.90;;;;;;5011877;28;20021;-71
2021/05/11 05:52:03;;;;;;;11.60;8.98;;;12.70;99.90;;;;;;4995806;28;20029;-71
2021/05/11 05:54:29;;;;;;;11.98;9.00;;;12.70;99.90;;;;;;5023364;28;20021;-72
2021/05/11 05:56:55;;;;;;;13.60;9.00;;;12.70;99.90;;;;;;5003665;28;20052;-71
2021/05/11 05:59:20;;;;;;;14.30;9.15;;;12.70;99.90;;;;;;5013610;28;20033;-72
2021/05/11 06:01:48;;;;;;;13.65;9.32;;;12.90;99.90;;;;;;5026809;28;20025;-71
2021/05/11 06:04:18;;;;;;;16.05;10.18;;;12.90;99.90;;;;;;5030303;28;20071;-71
2021/05/11 06:06:44;;;;;;;12.93;8.73;;;12.80;99.90;;;;;;5031053;28;20026;-71
2021/05/11 06:09:16;;;;;;;15.38;9.32;;;12.80;99.90;;;;;;5030858;28;20399;-71
2021/05/11 06:11:54;;;;;;;15.90;8.98;;;12.80;99.90;;;;;;5031201;28;20025;-71
2021/05/11 06:19:48;;;;;;;14.43;9.73;;;13.00;99.90;;;;;;4987101;28;20042;-72
2021/05/11 06:22:15;;;;;;;15.38;9.05;;;13.20;99.90;;;;;;5010732;28;20048;-70
2021/05/11 06:24:41;;;;;;;12.27;9.10;;;13.30;99.90;;;;;;5009998;28;20030;-71
2021/05/11 06:27:09;;;;;;;13.57;9.10;;;13.20;99.90;;;;;;5010793;28;20079;-72
2021/05/11 06:29:42;;;;;;;14.40;9.40;;;13.20;99.90;;;;;;5021642;28;20473;-72
2021/05/11 06:32:08;;;;;;;13.68;10.02;;;13.20;99.90;;;;;;5025855;28;20033;-71
2021/05/11 06:34:36;;;;;;;13.25;8.60;;;13.10;99.90;;;;;;5012356;28;20041;-70
2021/05/11 06:37:02;;;;;;;17.63;9.30;;;13.20;99.90;;;;;;5027394;28;20036;-71
2021/05/11 06:39:28;;;;;;;14.35;9.05;;;12.90;99.90;;;;;;5031586;28;20029;-71
2021/05/11 06:41:58;;;;;;;17.98;9.57;;;12.90;99.90;;;;;;5034683;28;20103;-71
2021/05/11 06:49:44;;;;;;;13.90;9.90;;;13.40;99.90;;;;;;5012065;28;20032;-70
2021/05/11 06:54:54;;;;;;;18.00;11.15;;;13.30;99.90;;;;;;5011231;28;20360;-71
2021/05/11 06:57:20;;;;;;;17.45;9.90;;;13.10;99.90;;;;;;5011244;28;20034;-71
2021/05/11 06:59:45;;;;;;;17.90;11.50;;;13.10;99.90;;;;;;5011595;28;20524;-71
2021/05/11 07:02:11;;;;;;;18.90;11.07;;;13.20;99.90;;;;;;5011235;28;20021;-72
2021/05/11 07:04:38;;;;;;;19.17;12.40;;;13.00;99.90;;;;;;5013999;28;20022;-70
2021/05/11 07:07:08;;;;;;;22.40;11.82;;;13.00;99.90;;;;;;5015463;28;20053;-72
2021/05/11 07:10:21;;;;;;;17.30;10.25;;;13.00;99.90;;;;;;4997999;28;20041;-70
2021/05/11 07:15:04;;;;;;;15.43;9.55;;;13.20;99.90;;;;;;5015325;28;20141;-71
2021/05/11 07:17:30;;;;;;;15.40;10.00;;;13.60;99.90;;;;;;5015658;28;20037;-70
2021/05/11 07:19:56;;;;;;;19.38;10.30;;;13.90;99.90;;;;;;5016331;28;20387;-71
2021/05/11 07:22:22;;;;;;;16.00;10.15;;;14.10;99.90;;;;;;5016833;28;20076;-71
2021/05/11 07:24:51;;;;;;;14.25;9.82;;;14.10;99.90;;;;;;5023758;28;20052;-71
2021/05/11 07:32:12;;;;;;;12.95;9.93;;;14.40;99.90;;;;;;5037243;28;20483;-73
2021/05/11 07:34:42;;;;;;;15.13;10.15;;;14.60;99.90;;;;;;5019402;28;20036;-70
2021/05/11 07:37:07;;;;;;;17.60;9.85;;;14.60;99.90;;;;;;5038614;28;20025;-71
2021/05/11 07:39:33;;;;;;;17.27;10.57;;;14.50;99.90;;;;;;5038856;28;20363;-70
2021/05/11 07:41:58;;;;;;;15.32;10.10;;;14.30;99.90;;;;;;5039560;28;20087;-70
2021/05/11 07:44:24;;;;;;;19.92;10.48;;;14.20;99.90;;;;;;5039043;28;20077;-69
2021/05/11 07:47:11;;;;;;;15.55;10.75;;;14.10;99.90;;;;;;5034360;28;20396;-70
2021/05/11 07:50:08;;;;;;;18.23;9.45;;;14.10;99.90;;;;;;5017289;28;20026;-71
2021/05/11 08:16:58;;;;;;;15.00;9.95;;;14.10;99.90;;;;;;5014297;28;20037;-72
2021/05/11 08:19:52;;;;;;;15.40;10.55;;;14.10;99.90;;;;;;5013771;28;20018;-71
2021/05/11 08:29:53;;;;;;;15.52;10.20;;;15.60;99.90;;;;;;5014251;28;20018;-72
2021/05/11 08:32:19;;;;;;;14.60;9.60;;;15.60;99.90;;;;;;4996447;28;20500;-71
2021/05/11 08:34:46;;;;;;;15.98;9.88;;;15.70;99.90;;;;;;5012803;28;20022;-72
2021/05/11 08:37:16;;;;;;;13.77;9.10;;;15.80;99.90;;;;;;5013210;28;20417;-71
2021/05/11 08:39:42;;;;;;;11.70;8.52;;;15.80;99.90;;;;;;5013259;28;20029;-72
2021/05/11 08:42:08;;;;;;;15.60;8.70;;;15.80;99.90;;;;;;4995253;28;20034;-71
2021/05/11 08:44:35;;;;;;;13.95;9.43;;;15.80;99.90;;;;;;4994954;28;20779;-72
2021/05/11 08:47:00;;;;;;;14.35;9.15;;;15.80;99.90;;;;;;5000463;28;20041;-71
2021/05/11 08:49:26;;;;;;;16.25;9.65;;;15.20;99.90;;;;;;5032442;28;20700;-71
2021/05/11 08:52:00;;;;;;;12.50;9.80;;;15.20;99.90;;;;;;5033059;28;20036;-72
2021/05/11 09:54:48;;;;;;;9.43;7.57;;;17.00;99.90;;;;;;5014842;28;20026;-74
2021/05/11 09:57:45;;;;;;;9.98;7.82;;;16.80;99.90;;;;;;5015474;28;20038;-73
2021/05/11 10:48:56;;;;;;;9.50;7.18;;;17.20;99.90;;;;;;5019275;28;20061;-71
2021/05/11 10:51:26;;;;;;;10.95;7.05;;;17.30;99.90;;;;;;5016286;28;20057;-71
2021/05/11 10:54:01;;;;;;;8.65;6.95;;;17.40;99.90;;;;;;5016710;28;20057;-72
2021/05/11 10:59:16;;;;;;;12.02;7.75;;;17.50;99.90;;;;;;5030423;28;20157;-70
2021/05/11 11:01:46;;;;;;;17.27;8.68;;;17.00;99.90;;;;;;5022407;28;20053;-72
2021/05/11 11:04:19;;;;;;;10.70;7.28;;;17.30;99.90;;;;;;5016872;28;20021;-71
2021/05/11 11:06:57;;;;;;;8.73;7.82;;;17.80;99.90;;;;;;5017368;28;20476;-72
2021/05/11 11:09:24;;;;;;;10.20;7.22;;;18.10;99.90;;;;;;5014218;28;20026;-71
2021/05/11 11:11:51;;;;;;;8.93;7.07;;;18.30;99.90;;;;;;5017019;28;20030;-71
2021/05/11 11:14:17;;;;;;;9.85;6.88;;;18.60;99.90;;;;;;5017288;28;20506;-70
2021/05/11 11:16:43;;;;;;;7.80;7.10;;;18.50;99.90;;;;;;5014950;28;20022;-71
2021/05/11 11:19:11;;;;;;;7.25;6.57;;;19.00;99.90;;;;;;5020598;28;20061;-71
2021/05/11 11:22:00;;;;;;;8.70;7.80;;;19.70;99.90;;;;;;5021916;28;20594;-71
2021/05/11 11:24:36;;;;;;;6.85;6.15;;;18.40;99.90;;;;;;5040360;28;20109;-72
2021/05/11 11:27:02;;;;;;;7.47;6.78;;;18.90;99.90;;;;;;5021703;28;20030;-72
2021/05/11 11:29:28;;;;;;;8.02;6.05;;;19.10;99.90;;;;;;5040092;28;20121;-71
2021/05/11 11:31:54;;;;;;;8.25;7.43;;;20.00;99.90;;;;;;5039131;28;20068;-70
2021/05/11 11:34:26;;;;;;;7.72;6.90;;;20.60;99.90;;;;;;5034718;28;20037;-71
2021/05/11 11:37:00;;;;;;;6.80;6.10;;;19.70;99.90;;;;;;5019073;28;20038;-72
2021/05/11 11:39:28;;;;;;;7.47;6.78;;;19.50;99.90;;;;;;5022044;28;20044;-74
2021/05/11 11:41:57;;;;;;;8.20;6.78;;;19.10;99.90;;;;;;5021619;28;20036;-71
2021/05/11 11:44:25;;;;;;;7.25;6.55;;;18.10;99.90;;;;;;5019078;28;20018;-71
2021/05/11 11:46:56;;;;;;;6.60;5.63;;;18.50;99.90;;;;;;5019408;28;20026;-71
2021/05/11 11:49:26;;;;;;;6.77;6.17;;;18.30;99.90;;;;;;4994636;28;20029;-73
2021/05/11 11:52:09;;;;;;;6.35;5.78;;;18.10;99.90;;;;;;5021729;28;20029;-71
2021/05/11 11:54:45;;;;;;;6.60;5.95;;;18.30;99.90;;;;;;5026528;28;20030;-78
2021/05/11 12:00:17;;;;;;;5.25;4.85;;;18.50;99.90;;;;;;5023309;28;20026;-77
2021/05/11 12:02:59;;;;;;;5.50;5.00;;;18.60;99.90;;;;;;5024959;28;20018;-76
2021/05/11 12:05:29;;;;;;;7.47;4.72;;;18.70;99.90;;;;;;4996971;28;20515;-77
2021/05/11 12:10:24;;;;;;;4.82;4.43;;;18.70;99.90;;;;;;5024509;28;20476;-78
2021/05/11 12:12:50;;;;;;;7.22;3.95;;;18.00;99.90;;;;;;5017667;28;20033;-76
2021/05/11 12:15:20;;;;;;;3.42;3.17;;;18.20;99.90;;;;;;5003678;28;20022;-78
2021/05/11 12:20:41;;;;;;;3.83;3.45;;;18.30;99.90;;;;;;5017429;28;20370;-72
2021/05/11 12:23:16;;;;;;;4.47;3.20;;;18.20;99.90;;;;;;5016479;28;20033;-72
2021/05/11 12:25:52;;;;;;;2.90;2.70;;;18.00;99.90;;;;;;5016753;28;20022;-77
2021/05/11 12:28:37;;;;;;;4.20;3.10;;;18.20;99.90;;;;;;4999875;28;20075;-76
2021/05/11 12:31:13;;;;;;;3.70;3.40;;;18.60;99.90;;;;;;5004835;28;20073;-73
2021/05/11 12:33:44;;;;;;;3.03;2.40;;;18.80;99.90;;;;;;5021617;28;20041;-76
2021/05/11 12:36:22;;;;;;;3.50;3.20;;;18.90;99.90;;;;;;5008881;28;20026;-75
2021/05/11 12:38:49;;;;;;;6.40;3.00;;;19.40;99.90;;;;;;5006779;28;20022;-77
2021/05/11 12:41:32;;;;;;;5.80;3.05;;;19.60;99.90;;;;;;5008159;28;20026;-76
2021/05/11 12:44:00;;;;;;;3.75;2.58;;;19.00;99.90;;;;;;5017063;28;20036;-76
2021/05/11 12:46:30;;;;;;;5.95;3.55;;;18.80;99.90;;;;;;5013936;28;20028;-77
2021/05/11 12:49:03;;;;;;;7.28;3.13;;;18.70;99.90;;;;;;5016530;28;20018;-76
2021/05/11 12:51:37;;;;;;;3.90;3.53;;;18.60;99.90;;;;;;5015794;28;20013;-75
2021/05/11 12:54:20;;;;;;;5.57;2.97;;;18.30;99.90;;;;;;5013175;28;20030;-77
2021/05/11 12:56:59;;;;;;;3.30;3.10;;;18.50;99.90;;;;;;5016115;28;20412;-76
2021/05/11 12:59:28;;;;;;;2.90;2.60;;;18.60;99.90;;;;;;5015898;28;20387;-76
2021/05/11 13:02:03;;;;;;;3.15;2.95;;;18.50;99.90;;;;;;5013511;28;20022;-75
2021/05/11 13:15:32;;;;;;;3.22;3.03;;;18.30;99.90;;;;;;5038176;28;19963;-76
2021/05/11 13:30:50;;;;;;;3.15;2.85;;;18.30;99.90;;;;;;5033349;28;20045;-78
2021/05/11 13:33:31;;;;;;;3.97;3.13;;;18.30;99.90;;;;;;5032385;28;20029;-77
2021/05/11 13:35:57;;;;;;;5.63;3.00;;;18.40;99.90;;;;;;5016308;28;20560;-78
2021/05/11 13:38:23;;;;;;;4.65;3.53;;;18.40;99.90;;;;;;5034086;28;20264;-77
2021/05/11 13:40:52;;;;;;;3.47;2.40;;;18.50;99.90;;;;;;5033045;28;20055;-77
2021/05/11 13:43:19;;;;;;;4.10;2.33;;;18.40;99.90;;;;;;5014377;28;20383;-77
2021/05/11 13:45:44;;;;;;;2.03;1.60;;;17.80;99.90;;;;;;5014899;28;20570;-78
2021/05/11 13:48:23;;;;;;;2.65;2.38;;;17.30;99.90;;;;;;5022264;28;20024;-77
2021/05/11 13:51:04;;;;;;;2.72;2.53;;;17.10;99.90;;;;;;4994813;28;20651;-76
2021/05/11 13:53:31;;;;;;;1.60;1.50;;;16.80;99.90;;;;;;4995779;28;20057;-79
2021/05/11 14:04:14;;;;;;;4.47;3.08;;;16.00;99.90;;;;;;4986547;28;20097;-75
2021/05/11 14:06:40;;;;;;;3.80;3.50;;;15.70;99.90;;;;;;5010642;28;20021;-72
2021/05/11 14:09:06;;;;;;;4.25;3.72;;;15.70;99.90;;;;;;5011348;28;20029;-72
2021/05/11 14:11:33;;;;;;;5.43;3.65;;;15.60;99.90;;;;;;5011829;28;20022;-72
2021/05/11 14:14:00;;;;;;;6.97;4.00;;;15.50;99.90;;;;;;5011294;28;20639;-71
2021/05/11 14:16:26;;;;;;;5.15;4.65;;;15.00;99.90;;;;;;5017977;28;20032;-73
2021/05/11 14:18:52;;;;;;;5.93;4.55;;;14.90;99.90;;;;;;5032782;28;20021;-73
2021/05/11 14:21:17;;;;;;;7.97;5.03;;;14.80;99.90;;;;;;4993809;28;20121;-70
2021/05/11 14:23:43;;;;;;;6.95;6.38;;;14.70;99.90;;;;;;5010199;28;20037;-71
2021/05/11 14:26:09;;;;;;;6.82;6.25;;;14.70;99.90;;;;;;5011195;28;20049;-70
2021/05/11 14:28:35;;;;;;;6.13;5.70;;;14.50;99.90;;;;;;5011658;28;20391;-71
2021/05/11 14:31:01;;;;;;;6.60;6.00;;;14.50;99.90;;;;;;5011519;28;20449;-72
2021/05/11 14:33:26;;;;;;;7.38;6.68;;;14.30;99.90;;;;;;5004583;28;20053;-72
2021/05/11 14:35:52;;;;;;;6.55;6.03;;;14.20;99.90;;;;;;5010940;28;20037;-73
2021/05/11 14:38:18;;;;;;;6.22;5.63;;;14.00;99.90;;;;;;5010889;28;20504;-72
2021/05/11 14:40:43;;;;;;;5.97;5.38;;;13.90;99.90;;;;;;5011237;28;20550;-74
2021/05/11 14:43:09;;;;;;;4.85;4.20;;;14.00;99.90;;;;;;5010416;28;20083;-72
2021/05/11 14:45:35;;;;;;;4.72;3.10;;;14.10;99.90;;;;;;5010888;28;20038;-71
2021/05/11 14:48:00;;;;;;;2.35;2.15;;;13.90;99.90;;;;;;5010957;28;20034;-73
2021/05/11 14:50:26;;;;;;;3.08;2.05;;;13.60;99.90;;;;;;5011349;28;20532;-70
2021/05/11 14:52:54;;;;;;;1.90;1.80;;;13.40;99.90;;;;;;5010481;28;20022;-71
2021/05/11 14:55:24;;;;;;;2.00;1.90;;;13.40;99.90;;;;;;5011096;28;20448;-72
2021/05/11 14:57:54;;;;;;;3.28;1.90;;;13.50;99.90;;;;;;5018245;28;20057;-72
2021/05/11 15:00:21;;;;;;;8.05;1.83;;;13.60;99.90;;;;;;5013614;28;20028;-75
2021/05/11 15:02:47;;;;;;;2.33;1.38;;;13.70;99.90;;;;;;5032472;28;20044;-72
2021/05/11 15:05:13;;;;;;;0.93;0.60;;;13.40;99.90;;;;;;5031103;28;20148;-71
2021/05/11 15:07:38;;;;;;;3.08;1.00;;;13.20;99.90;;;;;;5033629;28;20021;-70
2021/05/11 15:10:05;;;;;;;4.88;1.40;;;13.20;99.90;;;;;;5031497;28;20032;-69
2021/05/11 15:12:31;;;;;;;5.43;1.42;;;13.30;99.90;;;;;;5030632;28;20021;-69
2021/05/11 15:14:56;;;;;;;2.17;0.90;;;13.40;99.90;;;;;;5029789;28;20436;-71
2021/05/11 15:19:56;;;;;;;3.05;0.90;;;13.40;99.90;;;;;;5011123;28;20021;-72
2021/05/11 15:22:22;;;;;;;1.75;1.25;;;13.50;99.90;;;;;;4993840;28;20495;-73
2021/05/11 15:24:48;;;;;;;2.92;1.30;;;13.50;99.90;;;;;;5012148;28;20341;-70
2021/05/11 15:27:15;;;;;;;2.53;1.20;;;13.50;99.90;;;;;;5014251;28;20218;-72
2021/05/11 15:29:41;;;;;;;1.95;1.05;;;13.50;99.90;;;;;;5014795;28;20502;-74
2021/05/11 15:32:35;;;;;;;2.90;1.30;;;13.20;99.90;;;;;;5015042;28;20472;-75
2021/05/11 15:35:01;;;;;;;3.25;1.27;;;13.00;99.90;;;;;;5013915;28;20181;-74
2021/05/11 15:37:27;;;;;;;3.67;1.20;;;13.00;99.90;;;;;;5015272;28;20092;-75
2021/05/11 15:39:52;;;;;;;5.75;1.88;;;13.20;99.90;;;;;;5019338;28;20480;-73
2021/05/11 15:42:18;;;;;;;5.45;2.72;;;13.40;99.90;;;;;;5020865;28;20030;-74
2021/05/11 15:44:44;;;;;;;3.10;1.50;;;13.70;99.90;;;;;;5019860;28;20092;-74
2021/05/11 15:47:10;;;;;;;3.20;2.30;;;13.40;99.90;;;;;;4999245;28;20026;-72
2021/05/11 15:49:35;;;;;;;1.25;1.10;;;13.50;99.90;;;;;;5014750;28;20057;-72
2021/05/11 15:52:01;;;;;;;1.90;1.05;;;13.30;99.90;;;;;;5014583;28;20112;-72
2021/05/11 15:54:26;;;;;;;4.13;1.10;;;13.20;99.90;;;;;;5013803;28;20034;-72
2021/05/11 15:56:52;;;;;;;5.85;1.00;;;13.10;99.90;;;;;;5013587;28;20045;-75
2021/05/11 15:59:18;;;;;;;1.33;0.80;;;13.00;99.90;;;;;;5036692;28;20025;-75
2021/05/11 16:01:44;;;;;;;0.88;0.88;;;13.20;99.90;;;;;;5026971;28;20037;-76
2021/05/11 16:04:09;;;;;;;2.25;1.00;;;13.10;99.90;;;;;;5022547;28;20075;-76
2021/05/11 16:06:35;;;;;;;1.33;1.20;;;13.00;99.90;;;;;;5044111;28;20045;-77
2021/05/11 16:09:01;;;;;;;1.00;1.00;;;13.10;99.90;;;;;;5023734;28;20061;-76
2021/05/11 16:11:27;;;;;;;1.67;1.13;;;13.20;99.90;;;;;;5019785;28;20018;-73
2021/05/11 16:13:52;;;;;;;4.72;1.27;;;13.00;99.90;;;;;;5035934;28;20611;-74
2021/05/11 16:16:18;;;;;;;1.20;1.10;;;13.20;99.90;;;;;;5037481;28;20078;-74
2021/05/11 16:18:44;;;;;;;1.77;1.00;;;13.10;99.90;;;;;;5021883;28;20037;-72
2021/05/11 16:21:09;;;;;;;2.38;1.20;;;12.80;99.90;;;;;;5020843;28;20041;-74
2021/05/11 16:23:35;;;;;;;2.20;1.73;;;12.80;99.90;;;;;;5016423;28;20033;-74
2021/05/11 16:26:01;;;;;;;3.90;2.70;;;12.90;99.90;;;;;;5017184;28;20026;-74
2021/05/11 16:28:26;;;;;;;2.53;1.70;;;13.10;99.90;;;;;;5021427;28;20464;-74
2021/05/11 16:30:52;;;;;;;2.47;2.28;;;13.30;99.90;;;;;;5006378;28;20030;-74
2021/05/11 16:33:18;;;;;;;3.15;2.85;;;13.20;99.90;;;;;;5023454;28;20030;-73
2021/05/11 16:35:44;;;;;;;3.35;2.60;;;13.20;99.90;;;;;;5026239;28;20053;-75
2021/05/11 16:38:11;;;;;;;4.55;2.33;;;13.20;99.90;;;;;;5018666;28;20026;-74
2021/05/11 16:40:37;;;;;;;3.60;2.20;;;13.40;99.90;;;;;;5019407;28;20033;-74
2021/05/11 16:43:03;;;;;;;2.80;2.22;;;13.50;99.90;;;;;;5008998;28;20025;-73
2021/05/11 16:45:30;;;;;;;3.75;2.35;;;13.50;99.90;;;;;;5025394;28;20029;-74
2021/05/11 16:47:56;;;;;;;2.92;2.15;;;13.40;99.90;;;;;;5024471;28;20021;-74
2021/05/11 16:50:27;;;;;;;3.25;2.42;;;13.50;99.90;;;;;;5023232;28;20048;-73
2021/05/11 16:52:55;;;;;;;4.30;2.97;;;13.50;99.90;;;;;;5000879;28;20022;-73
2021/05/11 16:55:21;;;;;;;3.35;3.05;;;13.50;99.90;;;;;;5019309;28;20022;-73
2021/05/11 16:57:47;;;;;;;3.53;3.00;;;13.50;99.90;;;;;;5024115;28;20044;-72
2021/05/11 17:00:13;;;;;;;4.07;2.85;;;13.40;99.90;;;;;;5012921;28;20076;-73
2021/05/11 17:02:38;;;;;;;3.88;2.95;;;13.20;99.90;;;;;;5020707;28;20025;-73
2021/05/11 17:05:06;;;;;;;5.10;3.22;;;13.00;99.90;;;;;;5019203;28;20051;-73
2021/05/11 17:07:32;;;;;;;3.80;3.00;;;13.00;99.90;;;;;;4994329;28;20109;-73
2021/05/11 17:09:58;;;;;;;8.65;3.92;;;13.10;99.90;;;;;;5012160;28;20100;-72
2021/05/11 17:12:23;;;;;;;3.97;3.08;;;13.10;99.90;;;;;;5012687;28;20108;-76
2021/05/11 17:14:49;;;;;;;3.95;3.15;;;13.50;99.90;;;;;;5014327;28;20435;-76